createdAt,value
2017-11-24T00:02:12.887Z,90.90
2017-11-24T00:04:42.697Z,90.90
2017-11-24T00:07:11.585Z,91.10
2017-11-24T00:09:40.477Z,91.10
2017-11-24T00:12:09.384Z,91.10
2017-11-24T00:14:38.469Z,91.10
2017-11-24T00:17:07.322Z,91.30
2017-11-24T00:19:36.150Z,91.50
2017-11-24T00:22:05.243Z,91.30
2017-11-24T00:24:34.749Z,91.30
2017-11-24T00:27:03.640Z,91.30
2017-11-24T00:29:32.424Z,91.40
2017-11-24T00:32:01.317Z,91.20
2017-11-24T00:34:30.044Z,91.00
2017-11-24T00:36:58.894Z,91.10
2017-11-24T00:39:27.741Z,91.10
2017-11-24T00:41:57.298Z,91.00
2017-11-24T00:44:26.289Z,91.00
2017-11-24T00:46:55.299Z,91.10
2017-11-24T00:49:24.374Z,91.00
2017-11-24T00:51:53.481Z,91.00
2017-11-24T00:54:23.178Z,90.80
2017-11-24T00:56:52.386Z,90.60
2017-11-24T00:59:23.213Z,90.20
2017-11-24T01:01:52.319Z,90.20
2017-11-24T01:04:22.020Z,90.00
2017-11-24T01:06:50.797Z,90.00
2017-11-24T01:09:19.698Z,90.40
2017-11-24T01:11:48.590Z,90.40
2017-11-24T01:14:18.503Z,90.60
2017-11-24T01:19:45.425Z,90.60
2017-11-24T01:22:14.379Z,90.10
2017-11-24T01:24:43.356Z,89.90
2017-11-24T01:27:12.413Z,89.60
2017-11-24T01:29:41.550Z,90.10
2017-11-24T01:32:10.440Z,89.50
2017-11-24T01:34:39.539Z,89.90
2017-11-24T01:37:08.713Z,90.00
2017-11-24T01:39:37.724Z,90.20
2017-11-24T01:42:06.726Z,90.20
2017-11-24T01:44:35.918Z,90.40
2017-11-24T01:47:05.043Z,90.30
2017-11-24T01:49:34.114Z,90.40
2017-11-24T01:52:03.352Z,90.40
2017-11-24T01:54:32.510Z,90.40
2017-11-24T01:57:01.296Z,90.50
2017-11-24T01:59:31.218Z,89.00
2017-11-24T02:02:00.301Z,88.90
2017-11-24T02:04:29.194Z,88.00
2017-11-24T02:06:58.911Z,87.70
2017-11-24T02:09:27.796Z,87.60
2017-11-24T02:11:57.089Z,86.80
2017-11-24T02:14:26.190Z,87.10
2017-11-24T02:16:55.186Z,87.00
2017-11-24T02:19:24.280Z,85.50
2017-11-24T02:21:53.991Z,87.60
2017-11-24T02:24:23.892Z,87.10
2017-11-24T02:26:52.999Z,87.00
2017-11-24T02:29:21.838Z,87.60
2017-11-24T02:31:50.783Z,86.80
2017-11-24T02:34:19.879Z,86.10
2017-11-24T02:36:48.974Z,86.10
2017-11-24T02:39:17.801Z,85.80
2017-11-24T02:41:46.757Z,86.00
2017-11-24T02:44:15.650Z,84.30
2017-11-24T02:46:44.673Z,84.20
2017-11-24T02:49:14.454Z,83.80
2017-11-24T02:51:44.513Z,81.90
2017-11-24T02:54:13.464Z,81.90
2017-11-24T02:56:42.460Z,82.60
2017-11-24T02:59:11.387Z,82.00
2017-11-24T03:01:40.345Z,81.90
2017-11-24T03:04:09.793Z,82.20
2017-11-24T03:06:38.536Z,82.00
2017-11-24T03:09:08.243Z,81.90
2017-11-24T03:11:37.154Z,81.90
2017-11-24T03:14:06.034Z,81.90
2017-11-24T03:16:34.918Z,82.10
2017-11-24T03:19:04.626Z,82.60
2017-11-24T03:21:33.325Z,82.60
2017-11-24T03:24:02.824Z,80.50
2017-11-24T03:26:31.711Z,80.50
2017-11-24T03:29:00.608Z,79.30
2017-11-24T03:31:29.500Z,78.40
2017-11-24T03:33:58.385Z,79.70
2017-11-24T03:36:27.282Z,79.60
2017-11-24T03:38:56.166Z,78.00
2017-11-24T03:41:25.064Z,77.70
2017-11-24T03:43:53.952Z,77.90
2017-11-24T03:46:22.842Z,78.10
2017-11-24T03:48:51.730Z,78.30
2017-11-24T03:51:20.624Z,78.50
2017-11-24T03:53:49.306Z,78.70
2017-11-24T03:56:18.208Z,78.70
2017-11-24T03:58:46.985Z,78.70
2017-11-24T04:01:15.880Z,78.80
2017-11-24T04:03:44.768Z,78.90
2017-11-24T04:06:13.662Z,78.90
2017-11-24T04:08:42.629Z,78.90
2017-11-24T04:11:11.382Z,78.90
2017-11-24T04:13:40.127Z,78.90
2017-11-24T04:16:08.819Z,79.10
2017-11-24T04:18:37.707Z,78.90
2017-11-24T04:21:06.800Z,79.30
2017-11-24T04:23:36.514Z,79.20
2017-11-24T04:26:05.504Z,79.10
2017-11-24T04:28:34.293Z,79.30
2017-11-24T04:31:03.087Z,79.50
2017-11-24T04:33:31.973Z,79.50
2017-11-24T04:36:00.865Z,79.50
2017-11-24T04:38:29.755Z,79.60
2017-11-24T04:40:59.471Z,78.00
2017-11-24T04:43:28.792Z,77.90
2017-11-24T04:46:01.226Z,77.40
2017-11-24T04:48:30.032Z,77.30
2017-11-24T04:50:58.924Z,77.80
2017-11-24T04:53:27.709Z,77.90
2017-11-24T04:55:56.600Z,79.00
2017-11-24T04:58:25.430Z,78.10
2017-11-24T05:00:55.004Z,77.50
2017-11-24T05:03:23.887Z,77.50
2017-11-24T05:05:52.575Z,77.70
2017-11-24T05:08:21.404Z,76.90
2017-11-24T05:10:50.150Z,76.70
2017-11-24T05:13:19.248Z,76.50
2017-11-24T05:15:48.300Z,76.70
2017-11-24T05:18:17.848Z,74.50
2017-11-24T05:20:46.646Z,74.30
2017-11-24T05:23:16.365Z,72.20
2017-11-24T05:25:45.242Z,72.20
2017-11-24T05:28:14.128Z,71.10
2017-11-24T05:30:43.224Z,70.70
2017-11-24T05:33:12.322Z,70.40
2017-11-24T05:35:41.014Z,71.20
2017-11-24T05:38:09.909Z,72.10
2017-11-24T05:40:38.793Z,73.30
2017-11-24T05:43:07.483Z,73.40
2017-11-24T05:45:36.367Z,74.00
2017-11-24T05:48:05.053Z,74.20
2017-11-24T05:50:33.740Z,74.40
2017-11-24T05:53:02.630Z,74.60
2017-11-24T05:55:31.316Z,75.10
2017-11-24T05:58:00.002Z,75.80
2017-11-24T06:00:28.687Z,76.40
2017-11-24T06:02:57.578Z,76.50
2017-11-24T06:05:26.264Z,76.90
2017-11-24T06:07:55.101Z,76.60
2017-11-24T06:10:23.841Z,76.20
2017-11-24T06:12:52.838Z,75.70
2017-11-24T06:15:21.567Z,76.10
2017-11-24T06:17:50.309Z,75.50
2017-11-24T06:20:18.998Z,74.70
2017-11-24T06:22:48.095Z,74.40
2017-11-24T06:25:17.699Z,74.80
2017-11-24T06:27:46.388Z,74.60
2017-11-24T06:30:15.277Z,74.00
2017-11-24T06:32:44.066Z,73.80
2017-11-24T06:35:12.752Z,73.80
2017-11-24T06:37:41.444Z,73.80
2017-11-24T06:40:10.129Z,73.40
2017-11-24T06:42:38.915Z,72.90
2017-11-24T06:45:07.804Z,72.70
2017-11-24T06:47:36.490Z,72.50
2017-11-24T06:50:05.175Z,71.90
2017-11-24T06:52:34.081Z,71.80
2017-11-24T06:55:02.960Z,71.30
2017-11-24T06:57:31.647Z,70.70
2017-11-24T07:00:00.537Z,70.60
2017-11-24T07:02:29.224Z,70.60
2017-11-24T07:04:58.113Z,70.20
2017-11-24T07:07:27.006Z,70.30
2017-11-24T07:09:55.689Z,69.70
2017-11-24T07:12:24.478Z,69.50
2017-11-24T07:14:53.984Z,69.80
2017-11-24T07:17:22.874Z,69.80
2017-11-24T07:19:51.664Z,69.60
2017-11-24T07:22:20.456Z,70.00
2017-11-24T07:24:49.094Z,70.30
2017-11-24T07:27:17.831Z,69.80
2017-11-24T07:29:46.723Z,69.80
2017-11-24T07:32:15.570Z,70.10
2017-11-24T07:34:44.301Z,69.70
2017-11-24T07:37:13.208Z,69.50
2017-11-24T07:39:42.076Z,68.30
2017-11-24T07:42:10.983Z,68.50
2017-11-24T07:44:39.861Z,68.80
2017-11-24T07:47:09.159Z,69.00
2017-11-24T07:49:38.048Z,69.10
2017-11-24T07:52:06.938Z,69.40
2017-11-24T07:54:35.833Z,69.90
2017-11-24T07:57:04.517Z,69.40
2017-11-24T07:59:33.422Z,69.50
2017-11-24T08:02:02.317Z,70.00
2017-11-24T08:04:31.103Z,70.50
2017-11-24T08:07:00.082Z,69.90
2017-11-24T08:09:30.204Z,69.50
2017-11-24T08:11:59.068Z,69.30
2017-11-24T08:17:47.738Z,69.10
2017-11-24T08:20:16.459Z,69.30
2017-11-24T08:22:45.116Z,69.50
2017-11-24T08:25:13.869Z,69.10
2017-11-24T08:27:42.724Z,69.50
2017-11-24T08:30:11.612Z,70.00
2017-11-24T08:32:40.663Z,69.70
2017-11-24T08:35:10.212Z,69.40
2017-11-24T08:37:39.409Z,69.30
2017-11-24T08:40:09.134Z,69.40
2017-11-24T08:42:38.212Z,69.20
2017-11-24T08:45:07.111Z,69.70
2017-11-24T08:50:15.539Z,69.50
2017-11-24T08:52:44.325Z,69.40
2017-11-24T08:55:13.225Z,69.40
2017-11-24T08:57:42.722Z,68.90
2017-11-24T09:00:11.614Z,68.30
2017-11-24T09:02:40.513Z,68.80
2017-11-24T09:05:09.295Z,68.80
2017-11-24T09:07:38.286Z,69.30
2017-11-24T09:10:07.075Z,69.10
2017-11-24T09:12:35.768Z,69.00
2017-11-24T09:15:04.650Z,68.90
2017-11-24T09:17:33.350Z,68.30
2017-11-24T09:20:02.229Z,69.10
2017-11-24T09:22:31.132Z,68.50
2017-11-24T09:25:00.013Z,68.70
2017-11-24T09:27:28.698Z,68.70
2017-11-24T09:29:57.490Z,68.60
2017-11-24T09:32:26.376Z,68.50
2017-11-24T09:34:55.269Z,68.90
2017-11-24T09:37:24.927Z,68.40
2017-11-24T09:39:53.867Z,68.40
2017-11-24T09:42:22.759Z,68.60
2017-11-24T09:44:51.652Z,68.20
2017-11-24T09:47:20.541Z,68.10
2017-11-24T09:49:49.434Z,67.80
2017-11-24T09:52:18.324Z,68.20
2017-11-24T09:54:48.038Z,68.50
2017-11-24T09:57:16.926Z,68.50
2017-11-24T09:59:45.819Z,68.00
2017-11-24T10:02:14.505Z,67.90
2017-11-24T10:04:43.205Z,67.50
2017-11-24T10:07:12.898Z,66.80
2017-11-24T10:09:41.588Z,66.80
2017-11-24T10:12:10.474Z,65.10
2017-11-24T10:14:39.367Z,65.70
2017-11-24T10:17:08.257Z,66.10
2017-11-24T10:19:37.149Z,64.60
2017-11-24T10:24:49.062Z,64.50
2017-11-24T10:27:17.952Z,64.40
2017-11-24T10:29:46.750Z,64.20
2017-11-24T10:32:15.535Z,64.00
2017-11-24T10:34:44.215Z,62.00
2017-11-24T10:37:12.853Z,61.60
2017-11-24T10:39:42.312Z,61.10
2017-11-24T10:42:11.413Z,61.10
2017-11-24T10:44:40.194Z,59.70
2017-11-24T10:47:09.479Z,60.80
2017-11-24T10:49:38.386Z,59.70
2017-11-24T10:52:07.204Z,60.00
2017-11-24T10:54:36.780Z,59.60
2017-11-24T10:57:05.691Z,59.60
2017-11-24T10:59:34.887Z,60.00
2017-11-24T11:02:03.655Z,60.00
2017-11-24T11:04:32.341Z,59.90
2017-11-24T11:07:01.031Z,60.00
2017-11-24T11:09:29.828Z,59.10
2017-11-24T11:11:58.613Z,57.90
2017-11-24T11:14:27.293Z,58.10
2017-11-24T11:16:56.785Z,57.30
2017-11-24T11:19:25.487Z,57.30
2017-11-24T11:21:54.584Z,56.70
2017-11-24T11:24:23.269Z,56.70
2017-11-24T11:26:52.361Z,57.20
2017-11-24T11:29:21.252Z,56.30
2017-11-24T11:31:49.941Z,55.90
2017-11-24T11:34:18.593Z,54.20
2017-11-24T11:36:47.521Z,54.00
2017-11-24T11:39:16.187Z,54.90
2017-11-24T11:41:45.579Z,54.60
2017-11-24T11:44:14.813Z,55.00
2017-11-24T11:46:43.592Z,55.20
2017-11-24T11:49:12.696Z,55.10
2017-11-24T11:51:41.824Z,55.40
2017-11-24T11:54:11.498Z,53.80
2017-11-24T11:56:40.590Z,52.70
2017-11-24T11:59:10.304Z,52.30
2017-11-24T12:01:39.052Z,52.10
2017-11-24T12:04:08.082Z,52.20
2017-11-24T12:06:36.882Z,52.00
2017-11-24T12:09:05.705Z,51.70
2017-11-24T12:11:34.650Z,50.70
2017-11-24T12:14:03.543Z,50.50
2017-11-24T12:16:32.477Z,50.20
2017-11-24T12:19:01.225Z,50.50
2017-11-24T12:21:30.114Z,50.40
2017-11-24T12:23:59.236Z,50.10
2017-11-24T12:26:28.314Z,49.30
2017-11-24T12:28:57.201Z,50.60
2017-11-24T12:31:26.092Z,51.10
2017-11-24T12:33:54.875Z,51.70
2017-11-24T12:36:23.767Z,52.20
2017-11-24T12:38:52.453Z,52.50
2017-11-24T12:41:21.251Z,53.70
2017-11-24T12:43:50.131Z,54.20
2017-11-24T12:46:19.134Z,55.20
2017-11-24T12:48:47.795Z,55.80
2017-11-24T12:51:16.702Z,56.40
2017-11-24T12:53:45.389Z,57.80
2017-11-24T12:56:14.283Z,58.60
2017-11-24T12:58:43.179Z,58.60
2017-11-24T13:01:12.009Z,59.10
2017-11-24T13:03:41.568Z,58.70
2017-11-24T13:06:10.264Z,58.70
2017-11-24T13:08:38.938Z,58.40
2017-11-24T13:11:07.831Z,57.50
2017-11-24T13:13:36.517Z,57.90
2017-11-24T13:16:05.270Z,58.10
2017-11-24T13:18:33.952Z,57.80
2017-11-24T13:21:02.681Z,57.50
2017-11-24T13:23:31.562Z,58.30
2017-11-24T13:26:00.459Z,58.00
2017-11-24T13:28:29.313Z,58.10
2017-11-24T13:30:58.762Z,58.30
2017-11-24T13:33:27.441Z,58.30
2017-11-24T13:35:56.130Z,58.70
2017-11-24T13:38:24.818Z,57.50
2017-11-24T13:40:54.523Z,55.60
2017-11-24T13:43:23.216Z,55.60
2017-11-24T13:45:51.998Z,55.60
2017-11-24T13:48:20.688Z,54.90
2017-11-24T13:50:49.582Z,55.10
2017-11-24T13:53:18.471Z,55.20
2017-11-24T13:55:47.309Z,55.50
2017-11-24T13:58:16.249Z,55.60
2017-11-24T14:00:45.964Z,55.60
2017-11-24T14:03:16.591Z,55.90
2017-11-24T14:05:45.283Z,55.50
2017-11-24T14:08:13.978Z,55.20
2017-11-24T14:10:43.097Z,54.80
2017-11-24T14:13:12.059Z,55.10
2017-11-24T14:15:41.152Z,55.10
2017-11-24T14:18:10.259Z,54.90
2017-11-24T14:20:39.957Z,55.50
2017-11-24T14:23:08.647Z,55.50
2017-11-24T14:25:37.477Z,55.30
2017-11-24T14:28:07.086Z,55.30
2017-11-24T14:30:35.827Z,55.20
2017-11-24T14:33:04.934Z,55.70
2017-11-24T14:35:33.816Z,56.00
2017-11-24T14:38:02.702Z,56.20
2017-11-24T14:40:31.600Z,56.50
2017-11-24T14:43:01.408Z,58.20
2017-11-24T14:45:30.311Z,58.20
2017-11-24T14:47:59.491Z,59.60
2017-11-24T14:50:29.205Z,62.30
2017-11-24T14:52:58.325Z,62.20
2017-11-24T14:55:27.302Z,63.20
2017-11-24T14:57:56.134Z,64.40
2017-11-24T15:00:25.492Z,65.50
2017-11-24T15:02:55.506Z,66.60
2017-11-24T15:05:24.411Z,66.50
2017-11-24T15:07:53.902Z,69.00
2017-11-24T15:10:22.791Z,68.40
2017-11-24T15:12:52.925Z,70.70
2017-11-24T15:15:22.008Z,70.70
2017-11-24T15:17:51.902Z,72.80
2017-11-24T15:20:20.864Z,72.70
2017-11-24T15:22:49.727Z,73.50
2017-11-24T15:25:19.634Z,74.60
2017-11-24T15:27:48.451Z,74.50
2017-11-24T15:30:17.607Z,75.30
2017-11-24T15:32:46.719Z,75.50
2017-11-24T15:35:15.872Z,76.00
2017-11-24T15:37:44.795Z,76.00
2017-11-24T15:40:14.042Z,76.20
2017-11-24T15:42:42.844Z,76.50
2017-11-24T15:45:11.784Z,76.70
2017-11-24T15:47:40.605Z,76.70
2017-11-24T15:50:10.562Z,77.50
2017-11-24T15:52:39.573Z,77.40
2017-11-24T15:55:08.387Z,77.50
2017-11-24T15:57:38.388Z,77.90
2017-11-24T16:00:07.282Z,77.80
2017-11-24T16:02:37.187Z,78.90
2017-11-24T16:05:06.246Z,78.20
2017-11-24T16:07:35.373Z,78.60
2017-11-24T16:10:05.705Z,79.30
2017-11-24T16:12:34.774Z,79.30
2017-11-24T16:15:03.733Z,79.60
2017-11-24T16:17:32.578Z,79.50
2017-11-24T16:20:01.608Z,79.70
2017-11-24T16:22:30.721Z,81.00
2017-11-24T16:25:00.281Z,80.60
2017-11-24T16:27:29.428Z,80.60
2017-11-24T16:29:58.441Z,80.80
2017-11-24T16:32:27.362Z,80.60
2017-11-24T16:34:56.254Z,81.40
2017-11-24T16:37:24.946Z,80.90
2017-11-24T16:39:53.831Z,81.10
2017-11-24T16:42:22.721Z,81.20
2017-11-24T16:44:51.611Z,80.40
2017-11-24T16:47:20.650Z,80.10
2017-11-24T16:49:49.608Z,80.00
2017-11-24T16:52:18.487Z,80.10
2017-11-24T16:54:47.586Z,79.70
2017-11-24T16:57:16.815Z,80.10
2017-11-24T16:59:45.779Z,80.10
2017-11-24T17:02:14.667Z,80.00
2017-11-24T17:04:43.493Z,80.50
2017-11-24T17:07:12.661Z,80.70
2017-11-24T17:09:41.821Z,80.30
2017-11-24T17:12:10.845Z,80.60
2017-11-24T17:14:40.039Z,80.50
2017-11-24T17:17:09.188Z,80.50
2017-11-24T17:19:38.137Z,79.60
2017-11-24T17:22:08.231Z,79.30
2017-11-24T17:24:37.348Z,78.90
2017-11-24T17:27:07.978Z,80.00
2017-11-24T17:29:36.892Z,79.90
2017-11-24T17:32:05.779Z,80.80
2017-11-24T17:34:34.650Z,81.60
2017-11-24T17:37:03.775Z,81.80
2017-11-24T17:39:32.638Z,81.90
2017-11-24T17:42:04.235Z,82.30
2017-11-24T17:44:33.494Z,82.30
2017-11-24T17:47:02.796Z,82.40
2017-11-24T17:49:31.558Z,82.80
2017-11-24T17:52:00.372Z,83.10
2017-11-24T17:54:30.355Z,83.40
2017-11-24T17:57:01.930Z,83.70
2017-11-24T17:59:32.000Z,83.90
2017-11-24T18:02:01.445Z,83.90
2017-11-24T18:04:31.344Z,84.30
2017-11-24T18:07:00.792Z,83.70
2017-11-24T18:09:30.862Z,82.80
2017-11-24T18:12:00.712Z,82.60
2017-11-24T18:14:29.816Z,82.60
2017-11-24T18:16:58.914Z,82.30
2017-11-24T18:19:28.214Z,82.40
2017-11-24T18:21:57.790Z,82.10
2017-11-24T18:24:26.882Z,81.20
2017-11-24T18:26:55.802Z,80.40
2017-11-24T18:29:24.593Z,79.90
2017-11-24T18:31:53.483Z,79.50
2017-11-24T18:34:22.547Z,78.90
2017-11-24T18:36:53.744Z,78.80
2017-11-24T18:39:23.814Z,78.00
2017-11-24T18:41:53.670Z,78.00
2017-11-24T18:44:23.516Z,78.20
2017-11-24T18:46:52.379Z,78.20
2017-11-24T18:49:21.665Z,78.00
2017-11-24T18:51:50.548Z,78.20
2017-11-24T18:54:19.438Z,78.00
2017-11-24T18:56:48.435Z,77.40
2017-11-24T18:59:17.221Z,76.60
2017-11-24T19:01:46.320Z,75.90
2017-11-24T19:04:15.211Z,75.30
2017-11-24T19:06:44.105Z,73.40
2017-11-24T19:09:12.796Z,73.10
2017-11-24T19:11:42.084Z,71.70
2017-11-24T19:14:10.975Z,70.30
2017-11-24T19:16:39.661Z,70.40
2017-11-24T19:19:08.757Z,67.20
2017-11-24T19:21:37.653Z,67.40
2017-11-24T19:24:06.539Z,65.50
2017-11-24T19:26:35.432Z,64.70
2017-11-24T19:29:04.324Z,65.40
2017-11-24T19:31:33.396Z,65.40
2017-11-24T19:34:02.308Z,65.40
2017-11-24T19:36:31.409Z,65.70
2017-11-24T19:39:00.304Z,65.90
2017-11-24T19:41:29.200Z,66.40
2017-11-24T19:43:58.078Z,66.70
2017-11-24T19:46:26.971Z,66.20
2017-11-24T19:48:56.839Z,66.00
2017-11-24T19:51:25.780Z,66.40
2017-11-24T19:53:54.399Z,66.40
2017-11-24T19:56:23.352Z,66.30
2017-11-24T19:58:52.396Z,66.50
2017-11-24T20:01:21.752Z,65.80
2017-11-24T20:03:50.648Z,65.40
2017-11-24T20:06:19.948Z,65.70
2017-11-24T20:08:48.839Z,65.70
2017-11-24T20:11:17.723Z,65.60
2017-11-24T20:13:46.408Z,65.00
2017-11-24T20:16:15.250Z,64.20
2017-11-24T20:18:43.933Z,64.50
2017-11-24T20:21:13.501Z,64.00
2017-11-24T20:23:42.179Z,63.80
2017-11-24T20:26:11.074Z,64.00
2017-11-24T20:28:39.766Z,64.10
2017-11-24T20:31:08.646Z,65.10
2017-11-24T20:33:37.935Z,65.60
2017-11-24T20:36:06.837Z,65.10
2017-11-24T20:38:35.522Z,65.30
2017-11-24T20:41:05.234Z,65.60
2017-11-24T20:43:34.137Z,65.30
2017-11-24T20:46:03.019Z,65.70
2017-11-24T20:48:32.146Z,66.00
2017-11-24T20:51:00.800Z,65.80
2017-11-24T20:53:29.634Z,65.90
2017-11-24T20:55:58.377Z,66.10
2017-11-24T20:58:27.287Z,66.20
2017-11-24T21:00:56.056Z,66.50
2017-11-24T21:03:24.946Z,67.10
2017-11-24T21:05:54.046Z,66.80
2017-11-24T21:08:23.341Z,66.90
2017-11-24T21:10:52.441Z,66.90
2017-11-24T21:13:21.431Z,66.80
2017-11-24T21:15:50.424Z,67.10
2017-11-24T21:18:19.463Z,67.40
2017-11-24T21:20:48.413Z,67.30
2017-11-24T21:23:17.200Z,66.80
2017-11-24T21:25:46.090Z,67.70
2017-11-24T21:28:14.982Z,67.10
2017-11-24T21:30:43.874Z,67.40
2017-11-24T21:33:12.577Z,67.30
2017-11-24T21:35:41.450Z,67.10
2017-11-24T21:38:10.304Z,67.30
2017-11-24T21:40:39.847Z,67.30
2017-11-24T21:43:08.493Z,67.30
2017-11-24T21:45:37.219Z,66.50
2017-11-24T21:48:05.906Z,66.60
2017-11-24T21:50:34.594Z,64.90
2017-11-24T21:53:03.430Z,64.40
2017-11-24T21:55:32.378Z,62.90
2017-11-24T21:58:01.074Z,62.40
2017-11-24T22:00:29.956Z,61.40
2017-11-24T22:02:58.641Z,61.80
2017-11-24T22:05:28.557Z,62.10
2017-11-24T22:07:57.443Z,62.20
2017-11-24T22:10:26.335Z,62.10
2017-11-24T22:12:55.238Z,61.70
2017-11-24T22:15:23.925Z,62.20
2017-11-24T22:17:52.801Z,62.30
2017-11-24T22:20:21.489Z,62.20
2017-11-24T22:22:50.381Z,62.60
2017-11-24T22:25:19.064Z,62.40
2017-11-24T22:27:47.966Z,62.90
2017-11-24T22:30:16.856Z,62.50
2017-11-24T22:32:45.688Z,62.20
2017-11-24T22:35:15.580Z,62.80
2017-11-24T22:37:44.761Z,62.70
2017-11-24T22:40:13.647Z,62.90
2017-11-24T22:42:42.330Z,62.80
2017-11-24T22:45:11.016Z,62.10
2017-11-24T22:47:39.805Z,61.80
2017-11-24T22:50:08.704Z,61.40
2017-11-24T22:52:37.796Z,61.90
2017-11-24T22:55:06.896Z,62.50
2017-11-24T22:57:35.992Z,61.90
2017-11-24T23:00:05.095Z,62.90
2017-11-24T23:02:34.190Z,62.80
2017-11-24T23:05:02.865Z,63.00
2017-11-24T23:07:31.753Z,63.10
2017-11-24T23:10:00.644Z,63.40
2017-11-24T23:12:29.535Z,63.40
2017-11-24T23:14:58.428Z,64.00
2017-11-24T23:17:27.053Z,64.10
2017-11-24T23:19:55.744Z,64.20
2017-11-24T23:22:24.484Z,64.70
2017-11-24T23:24:53.273Z,65.30
2017-11-24T23:27:22.064Z,64.60
2017-11-24T23:29:50.755Z,65.70
2017-11-24T23:32:19.637Z,65.40
2017-11-24T23:34:48.324Z,65.40
2017-11-24T23:37:17.008Z,65.60
2017-11-24T23:39:45.696Z,65.70
2017-11-24T23:42:14.386Z,66.00
2017-11-24T23:44:43.272Z,65.90
2017-11-24T23:47:11.895Z,65.90
2017-11-24T23:49:40.653Z,66.00
2017-11-24T23:52:09.329Z,66.10
2017-11-24T23:54:38.237Z,66.20
2017-11-24T23:57:07.120Z,66.20
2017-11-24T23:59:36.620Z,66.20
